createdAt,value
2017-10-25T00:02:05.196Z,12.50
2017-10-25T00:04:33.536Z,12.50
2017-10-25T00:07:03.014Z,12.50
2017-10-25T00:09:31.269Z,12.50
2017-10-25T00:11:59.727Z,12.60
2017-10-25T00:14:27.340Z,12.50
2017-10-25T00:16:55.732Z,12.60
2017-10-25T00:19:23.316Z,12.50
2017-10-25T00:21:50.892Z,12.50
2017-10-25T00:24:18.484Z,12.50
2017-10-25T00:26:46.048Z,12.50
2017-10-25T00:29:13.661Z,12.50
2017-10-25T00:31:41.225Z,12.60
2017-10-25T00:34:08.796Z,12.50
2017-10-25T00:36:36.392Z,12.60
2017-10-25T00:39:03.955Z,12.60
2017-10-25T00:41:31.548Z,12.60
2017-10-25T00:43:59.112Z,12.60
2017-10-25T00:46:26.706Z,12.60
2017-10-25T00:48:56.285Z,12.50
2017-10-25T00:51:23.881Z,12.50
2017-10-25T00:53:52.212Z,12.50
2017-10-25T00:56:19.820Z,12.50
2017-10-25T00:58:48.156Z,12.50
2017-10-25T01:01:15.778Z,12.50
2017-10-25T01:03:43.376Z,12.50
2017-10-25T01:06:10.952Z,12.50
2017-10-25T01:08:38.544Z,12.50
2017-10-25T01:11:06.919Z,12.50
2017-10-25T01:13:35.445Z,12.50
2017-10-25T01:16:03.314Z,12.50
2017-10-25T01:18:32.660Z,12.60
2017-10-25T01:21:01.488Z,12.60
2017-10-25T01:23:29.579Z,12.60
2017-10-25T01:25:58.709Z,12.60
2017-10-25T01:28:26.311Z,12.60
2017-10-25T01:30:55.567Z,12.50
2017-10-25T01:33:23.141Z,12.50
2017-10-25T01:35:50.728Z,12.60
2017-10-25T01:38:18.304Z,12.50
2017-10-25T01:40:45.896Z,12.50
2017-10-25T01:43:13.476Z,12.50
2017-10-25T01:45:41.065Z,12.50
2017-10-25T01:48:09.400Z,12.50
2017-10-25T01:50:36.993Z,12.60
2017-10-25T01:53:05.340Z,12.60
2017-10-25T01:55:32.941Z,12.60
2017-10-25T01:58:01.285Z,12.60
2017-10-25T02:00:28.871Z,12.60
2017-10-25T02:02:58.546Z,12.60
2017-10-25T02:05:26.140Z,12.60
2017-10-25T02:07:53.708Z,12.60
2017-10-25T02:10:22.064Z,12.60
2017-10-25T02:12:49.736Z,12.60
2017-10-25T02:15:17.507Z,12.60
2017-10-25T02:17:45.077Z,12.60
2017-10-25T02:20:13.420Z,12.60
2017-10-25T02:22:41.017Z,12.60
2017-10-25T02:25:09.469Z,12.60
2017-10-25T02:27:38.161Z,12.60
2017-10-25T02:30:06.427Z,12.60
2017-10-25T02:32:34.052Z,12.60
2017-10-25T02:35:01.759Z,12.50
2017-10-25T02:37:29.743Z,12.50
2017-10-25T02:39:58.717Z,12.60
2017-10-25T02:42:27.424Z,12.50
2017-10-25T02:44:57.332Z,12.50
2017-10-25T02:47:24.968Z,12.50
2017-10-25T02:49:52.560Z,12.60
2017-10-25T02:52:20.128Z,12.50
2017-10-25T02:54:48.504Z,12.60
2017-10-25T02:57:16.072Z,12.60
2017-10-25T02:59:44.437Z,12.60
2017-10-25T03:02:12.004Z,12.60
2017-10-25T03:04:39.657Z,12.60
2017-10-25T03:07:07.227Z,12.60
2017-10-25T03:09:34.828Z,12.60
2017-10-25T03:12:02.396Z,12.60
2017-10-25T03:14:29.984Z,12.60
2017-10-25T03:16:58.672Z,12.60
2017-10-25T03:19:26.464Z,12.60
2017-10-25T03:21:54.032Z,12.60
2017-10-25T03:24:22.396Z,12.60
2017-10-25T03:26:49.996Z,12.60
2017-10-25T03:29:17.580Z,12.60
2017-10-25T03:31:45.183Z,12.60
2017-10-25T03:34:12.752Z,12.60
2017-10-25T03:36:41.325Z,12.60
2017-10-25T03:39:08.893Z,12.60
2017-10-25T03:41:36.558Z,12.60
2017-10-25T03:44:04.912Z,12.60
2017-10-25T03:46:32.485Z,12.60
2017-10-25T03:49:00.081Z,12.70
2017-10-25T03:51:27.899Z,12.70
2017-10-25T03:53:56.700Z,12.70
2017-10-25T03:56:24.260Z,12.70
2017-10-25T03:58:51.860Z,12.70
2017-10-25T04:01:19.429Z,12.70
2017-10-25T04:03:47.052Z,12.80
2017-10-25T04:06:14.636Z,12.80
2017-10-25T04:08:42.964Z,12.80
2017-10-25T04:11:10.556Z,12.90
2017-10-25T04:13:38.900Z,12.80
2017-10-25T04:16:06.697Z,12.80
2017-10-25T04:18:34.351Z,12.80
2017-10-25T04:21:01.924Z,12.80
2017-10-25T04:23:29.521Z,12.80
2017-10-25T04:25:58.644Z,12.80
2017-10-25T04:28:26.240Z,12.80
2017-10-25T04:30:53.807Z,12.80
2017-10-25T04:33:21.401Z,12.80
2017-10-25T04:35:49.028Z,12.80
2017-10-25T04:38:16.612Z,12.80
2017-10-25T04:40:44.941Z,12.80
2017-10-25T04:43:12.927Z,12.80
2017-10-25T04:45:41.312Z,12.70
2017-10-25T04:48:08.885Z,12.70
2017-10-25T04:50:37.353Z,12.60
2017-10-25T04:53:04.932Z,12.60
2017-10-25T04:55:33.289Z,12.60
2017-10-25T04:58:01.240Z,12.60
2017-10-25T05:00:29.641Z,12.60
2017-10-25T05:02:57.320Z,12.60
2017-10-25T05:05:25.688Z,12.60
2017-10-25T05:07:53.257Z,12.60
2017-10-25T05:10:21.671Z,12.60
2017-10-25T05:12:49.240Z,12.50
2017-10-25T05:15:19.873Z,12.50
2017-10-25T05:17:49.199Z,12.50
2017-10-25T05:20:18.432Z,12.50
2017-10-25T05:22:47.564Z,12.60
2017-10-25T05:25:15.368Z,12.50
2017-10-25T05:27:43.045Z,12.50
2017-10-25T05:30:10.624Z,12.50
2017-10-25T05:32:38.988Z,12.50
2017-10-25T05:35:06.657Z,12.40
2017-10-25T05:37:35.021Z,12.50
2017-10-25T05:40:02.600Z,12.50
2017-10-25T05:42:31.168Z,12.60
2017-10-25T05:45:00.179Z,12.60
2017-10-25T05:47:28.568Z,12.60
2017-10-25T05:49:57.752Z,12.70
2017-10-25T05:52:26.093Z,12.70
2017-10-25T05:54:53.696Z,12.70
2017-10-25T05:57:22.029Z,12.80
2017-10-25T05:59:49.597Z,12.80
2017-10-25T06:02:17.189Z,12.90
2017-10-25T06:04:45.520Z,12.90
2017-10-25T06:07:13.129Z,12.90
2017-10-25T06:09:40.717Z,12.90
2017-10-25T06:12:08.612Z,12.90
2017-10-25T06:14:36.201Z,12.90
2017-10-25T06:17:03.980Z,12.90
2017-10-25T06:19:31.539Z,12.90
2017-10-25T06:22:00.509Z,13.00
2017-10-25T06:24:28.104Z,13.00
2017-10-25T06:26:57.355Z,13.00
2017-10-25T06:29:24.967Z,13.00
2017-10-25T06:31:53.305Z,13.00
2017-10-25T06:34:20.896Z,13.00
2017-10-25T06:36:48.465Z,13.00
2017-10-25T06:39:16.036Z,13.00
2017-10-25T06:41:44.399Z,13.10
2017-10-25T06:44:11.972Z,13.10
2017-10-25T06:46:40.324Z,13.10
2017-10-25T06:49:07.916Z,13.10
2017-10-25T06:51:36.272Z,13.20
2017-10-25T06:54:05.357Z,13.20
2017-10-25T06:56:32.949Z,13.20
2017-10-25T06:59:01.280Z,13.20
2017-10-25T07:01:28.882Z,13.20
2017-10-25T07:03:58.660Z,13.20
2017-10-25T07:06:26.243Z,13.20
2017-10-25T07:08:53.908Z,13.20
2017-10-25T07:11:23.003Z,13.20
2017-10-25T07:13:50.606Z,13.20
2017-10-25T07:16:18.340Z,13.30
2017-10-25T07:18:46.680Z,13.50
2017-10-25T07:21:14.239Z,13.50
2017-10-25T07:23:41.823Z,13.50
2017-10-25T07:26:09.387Z,13.60
2017-10-25T07:28:36.972Z,13.80
2017-10-25T07:31:05.304Z,13.70
2017-10-25T07:33:32.896Z,13.70
2017-10-25T07:36:00.464Z,13.60
2017-10-25T07:38:28.817Z,13.60
2017-10-25T07:40:58.612Z,13.50
2017-10-25T07:43:26.204Z,13.50
2017-10-25T07:45:53.767Z,13.50
2017-10-25T07:48:21.355Z,13.40
2017-10-25T07:50:49.684Z,13.50
2017-10-25T07:53:17.308Z,13.50
2017-10-25T07:55:44.872Z,13.50
2017-10-25T07:58:12.493Z,13.60
2017-10-25T08:00:40.086Z,13.60
2017-10-25T08:03:07.652Z,13.60
2017-10-25T08:05:35.236Z,13.70
2017-10-25T08:08:02.833Z,13.80
2017-10-25T08:10:31.187Z,14.20
2017-10-25T08:12:59.811Z,14.10
2017-10-25T08:15:28.165Z,14.60
2017-10-25T08:17:55.732Z,14.60
2017-10-25T08:20:23.329Z,14.70
2017-10-25T08:22:50.897Z,14.70
2017-10-25T08:25:18.480Z,14.60
2017-10-25T08:27:46.041Z,14.50
2017-10-25T08:30:13.923Z,14.30
2017-10-25T08:32:41.492Z,14.20
2017-10-25T08:35:09.082Z,14.20
2017-10-25T08:37:37.421Z,14.10
2017-10-25T08:40:05.064Z,14.10
2017-10-25T08:42:32.652Z,14.10
2017-10-25T08:45:00.220Z,14.10
2017-10-25T08:47:27.824Z,14.10
2017-10-25T08:49:55.421Z,14.10
2017-10-25T08:52:23.008Z,14.00
2017-10-25T08:54:52.106Z,14.00
2017-10-25T08:57:19.767Z,14.00
2017-10-25T08:59:47.362Z,14.00
2017-10-25T09:02:14.944Z,14.10
2017-10-25T09:04:42.531Z,14.10
2017-10-25T09:07:10.092Z,14.20
2017-10-25T09:09:37.680Z,14.20
2017-10-25T09:12:05.252Z,14.30
2017-10-25T09:14:33.608Z,14.30
2017-10-25T09:17:01.176Z,14.20
2017-10-25T09:19:28.776Z,14.30
2017-10-25T09:21:58.743Z,14.30
2017-10-25T09:24:26.304Z,14.30
2017-10-25T09:26:53.896Z,14.40
2017-10-25T09:29:22.228Z,15.00
2017-10-25T09:31:49.817Z,15.00
2017-10-25T09:34:17.472Z,15.20
2017-10-25T09:36:45.068Z,15.30
2017-10-25T09:39:12.632Z,15.50
2017-10-25T09:41:40.221Z,15.90
2017-10-25T09:44:07.787Z,16.40
2017-10-25T09:46:35.585Z,16.70
2017-10-25T09:49:03.152Z,16.80
2017-10-25T09:51:30.710Z,16.40
2017-10-25T09:54:00.161Z,16.10
2017-10-25T09:56:27.744Z,15.80
2017-10-25T09:58:55.329Z,15.70
2017-10-25T10:01:24.428Z,15.50
2017-10-25T10:03:54.453Z,15.50
2017-10-25T10:06:22.998Z,15.50
2017-10-25T10:08:50.594Z,15.50
2017-10-25T10:11:18.257Z,15.50
2017-10-25T10:13:45.829Z,15.50
2017-10-25T10:16:14.179Z,15.20
2017-10-25T10:18:41.736Z,15.10
2017-10-25T10:21:09.369Z,15.20
2017-10-25T10:23:37.328Z,15.60
2017-10-25T10:26:04.916Z,16.00
2017-10-25T10:28:32.476Z,16.20
2017-10-25T10:31:00.060Z,16.20
2017-10-25T10:33:27.728Z,16.40
2017-10-25T10:35:55.320Z,16.30
2017-10-25T10:38:23.666Z,16.00
2017-10-25T10:40:51.268Z,16.00
2017-10-25T10:43:18.846Z,15.90
2017-10-25T10:45:46.408Z,15.60
2017-10-25T10:48:14.000Z,15.60
2017-10-25T10:50:41.559Z,15.50
2017-10-25T10:53:09.153Z,15.60
2017-10-25T10:55:37.483Z,15.70
2017-10-25T10:58:05.070Z,15.70
2017-10-25T11:00:32.636Z,15.60
2017-10-25T11:03:00.232Z,15.60
2017-10-25T11:05:27.806Z,15.70
2017-10-25T11:07:55.419Z,15.70
2017-10-25T11:10:22.976Z,15.70
2017-10-25T11:12:50.639Z,15.90
2017-10-25T11:15:18.299Z,16.00
2017-10-25T11:17:45.907Z,16.10
2017-10-25T11:20:13.467Z,16.10
2017-10-25T11:22:41.028Z,16.30
2017-10-25T11:25:08.933Z,16.30
2017-10-25T11:27:36.512Z,16.70
2017-10-25T11:30:04.515Z,17.10
2017-10-25T11:32:32.843Z,16.90
2017-10-25T11:35:00.432Z,16.90
2017-10-25T11:37:27.998Z,16.70
2017-10-25T11:39:57.392Z,16.40
2017-10-25T11:42:24.961Z,16.40
2017-10-25T11:44:53.292Z,16.50
2017-10-25T11:47:20.890Z,16.50
2017-10-25T11:49:48.448Z,16.50
2017-10-25T11:52:16.052Z,16.70
2017-10-25T11:54:43.624Z,16.90
2017-10-25T11:57:11.212Z,16.50
2017-10-25T11:59:38.771Z,16.50
2017-10-25T12:02:06.708Z,16.80
2017-10-25T12:04:34.277Z,17.10
2017-10-25T12:07:01.841Z,17.50
2017-10-25T12:09:29.428Z,17.60
2017-10-25T12:11:58.846Z,17.40
2017-10-25T12:14:26.708Z,17.40
2017-10-25T12:16:54.276Z,17.40
2017-10-25T12:19:21.835Z,17.20
2017-10-25T12:21:49.497Z,17.20
2017-10-25T12:24:17.072Z,17.20
2017-10-25T12:26:45.436Z,17.30
2017-10-25T12:29:13.000Z,17.30
2017-10-25T12:31:40.587Z,17.80
2017-10-25T12:34:08.936Z,17.30
2017-10-25T12:36:36.600Z,17.30
2017-10-25T12:39:04.163Z,17.20
2017-10-25T12:41:31.750Z,17.10
2017-10-25T12:43:59.752Z,17.00
2017-10-25T12:46:27.373Z,16.80
2017-10-25T12:48:55.703Z,16.60
2017-10-25T12:51:23.264Z,16.60
2017-10-25T12:53:51.092Z,16.60
2017-10-25T12:56:18.659Z,16.50
2017-10-25T12:58:46.253Z,16.60
2017-10-25T13:01:13.841Z,16.90
2017-10-25T13:03:41.432Z,17.00
2017-10-25T13:06:09.760Z,17.80
2017-10-25T13:08:37.356Z,17.80
2017-10-25T13:11:07.929Z,17.20
2017-10-25T13:13:36.410Z,17.20
2017-10-25T13:16:05.480Z,17.10
2017-10-25T13:18:35.641Z,17.30
2017-10-25T13:21:03.212Z,17.30
2017-10-25T13:23:30.780Z,18.40
2017-10-25T13:25:59.920Z,18.50
2017-10-25T13:28:28.248Z,17.80
2017-10-25T13:30:56.031Z,17.80
2017-10-25T13:33:23.598Z,17.80
2017-10-25T13:35:51.161Z,18.00
2017-10-25T13:38:18.816Z,17.70
2017-10-25T13:40:46.475Z,17.60
2017-10-25T13:43:14.060Z,17.50
2017-10-25T13:45:42.388Z,18.80
2017-10-25T13:48:10.081Z,18.80
2017-10-25T13:50:37.745Z,18.90
2017-10-25T13:53:05.728Z,18.50
2017-10-25T13:55:34.092Z,18.60
2017-10-25T13:58:01.758Z,18.60
2017-10-25T14:00:29.361Z,19.00
2017-10-25T14:02:58.685Z,19.20
2017-10-25T14:05:26.244Z,19.20
2017-10-25T14:07:53.832Z,19.10
2017-10-25T14:10:22.228Z,19.10
2017-10-25T14:12:50.596Z,18.40
2017-10-25T14:15:18.160Z,18.40
2017-10-25T14:17:45.752Z,18.20
2017-10-25T14:20:14.389Z,18.10
2017-10-25T14:22:42.067Z,18.10
2017-10-25T14:25:09.629Z,17.90
2017-10-25T14:27:49.162Z,17.80
2017-10-25T14:30:16.835Z,17.60
2017-10-25T14:32:44.420Z,17.50
2017-10-25T14:35:12.761Z,17.10
2017-10-25T14:37:40.437Z,17.10
2017-10-25T14:40:08.005Z,16.90
2017-10-25T14:42:37.258Z,16.80
2017-10-25T14:45:04.861Z,16.80
2017-10-25T14:47:32.433Z,16.80
2017-10-25T14:50:00.792Z,16.80
2017-10-25T14:52:28.422Z,16.70
2017-10-25T14:54:56.944Z,16.90
2017-10-25T14:57:24.507Z,16.90
2017-10-25T14:59:52.096Z,16.70
2017-10-25T15:02:20.424Z,16.50
2017-10-25T15:04:48.214Z,16.50
2017-10-25T15:07:15.872Z,16.50
2017-10-25T15:09:44.196Z,16.50
2017-10-25T15:12:11.789Z,16.50
2017-10-25T15:14:39.780Z,16.50
2017-10-25T15:17:07.349Z,16.50
2017-10-25T15:19:34.916Z,16.40
2017-10-25T15:22:03.265Z,16.30
2017-10-25T15:24:30.833Z,16.30
2017-10-25T15:26:59.767Z,16.30
2017-10-25T15:29:28.101Z,16.00
2017-10-25T15:31:55.713Z,15.90
2017-10-25T15:34:23.332Z,15.90
2017-10-25T15:36:50.896Z,15.80
2017-10-25T15:39:18.500Z,15.70
2017-10-25T15:41:46.065Z,15.70
2017-10-25T15:44:13.644Z,15.60
2017-10-25T15:46:41.231Z,15.60
2017-10-25T15:49:08.798Z,15.50
2017-10-25T15:51:36.775Z,15.50
2017-10-25T15:54:05.122Z,15.40
2017-10-25T15:56:32.708Z,15.40
2017-10-25T15:59:00.381Z,15.40
2017-10-25T16:01:27.941Z,15.40
2017-10-25T16:03:55.781Z,15.40
2017-10-25T16:06:23.344Z,15.40
2017-10-25T16:08:50.928Z,15.40
2017-10-25T16:11:18.492Z,15.30
2017-10-25T16:13:46.865Z,15.20
2017-10-25T16:16:14.436Z,15.20
2017-10-25T16:18:43.004Z,15.20
2017-10-25T16:21:10.667Z,15.20
2017-10-25T16:23:38.330Z,15.10
2017-10-25T16:26:07.437Z,14.90
2017-10-25T16:28:35.765Z,14.90
2017-10-25T16:31:03.361Z,14.90
2017-10-25T16:33:30.939Z,14.80
2017-10-25T16:36:00.844Z,14.80
2017-10-25T16:38:28.409Z,14.80
2017-10-25T16:40:58.400Z,14.70
2017-10-25T16:43:25.993Z,14.70
2017-10-25T16:45:53.556Z,14.70
2017-10-25T16:48:21.908Z,14.50
2017-10-25T16:50:49.472Z,14.50
2017-10-25T16:53:17.253Z,14.50
2017-10-25T16:55:44.820Z,14.40
2017-10-25T16:58:13.156Z,14.40
2017-10-25T17:00:40.744Z,14.30
2017-10-25T17:03:08.308Z,14.30
2017-10-25T17:05:35.895Z,14.20
2017-10-25T17:08:04.224Z,14.10
2017-10-25T17:10:31.812Z,14.10
2017-10-25T17:12:59.782Z,14.00
2017-10-25T17:15:27.367Z,13.90
2017-10-25T17:17:55.700Z,13.60
2017-10-25T17:20:23.404Z,13.60
2017-10-25T17:22:51.733Z,13.40
2017-10-25T17:25:19.308Z,13.40
2017-10-25T17:27:46.904Z,13.30
2017-10-25T17:30:15.365Z,13.10
2017-10-25T17:32:43.692Z,13.00
2017-10-25T17:35:11.304Z,13.00
2017-10-25T17:37:38.906Z,13.00
2017-10-25T17:40:06.812Z,12.90
2017-10-25T17:42:34.452Z,12.90
2017-10-25T17:45:02.024Z,12.80
2017-10-25T17:47:29.596Z,12.90
2017-10-25T17:49:59.736Z,12.80
2017-10-25T17:52:27.299Z,12.80
2017-10-25T17:54:54.888Z,12.80
2017-10-25T17:57:23.224Z,12.80
2017-10-25T17:59:50.821Z,12.70
2017-10-25T18:02:19.176Z,12.80
2017-10-25T18:04:46.838Z,12.80
2017-10-25T18:07:14.408Z,12.80
2017-10-25T18:09:42.020Z,12.80
2017-10-25T18:12:09.589Z,12.90
2017-10-25T18:14:37.164Z,13.00
2017-10-25T18:17:04.761Z,13.00
2017-10-25T18:19:33.120Z,13.00
2017-10-25T18:22:00.850Z,13.00
2017-10-25T18:24:28.428Z,13.00
2017-10-25T18:26:57.689Z,13.00
2017-10-25T18:29:25.275Z,12.90
2017-10-25T18:31:52.837Z,13.00
2017-10-25T18:34:20.436Z,13.00
2017-10-25T18:36:48.772Z,13.00
2017-10-25T18:39:16.380Z,13.00
2017-10-25T18:41:44.721Z,12.90
2017-10-25T18:44:12.307Z,12.90
2017-10-25T18:46:40.695Z,12.70
2017-10-25T18:49:08.273Z,12.70
2017-10-25T18:51:36.628Z,12.70
2017-10-25T18:54:04.209Z,12.70
2017-10-25T18:56:32.703Z,12.70
2017-10-25T18:59:00.341Z,12.70
2017-10-25T19:01:27.917Z,12.70
2017-10-25T19:03:55.765Z,12.70
2017-10-25T19:06:23.409Z,12.60
2017-10-25T19:08:50.980Z,12.60
2017-10-25T19:11:18.753Z,12.60
2017-10-25T19:13:46.324Z,12.70
2017-10-25T19:16:14.664Z,12.70
2017-10-25T19:18:42.356Z,12.70
2017-10-25T19:21:09.933Z,12.60
2017-10-25T19:23:38.469Z,12.60
2017-10-25T19:26:06.032Z,12.60
2017-10-25T19:28:33.606Z,12.60
2017-10-25T19:31:01.200Z,12.60
2017-10-25T19:33:29.557Z,12.70
2017-10-25T19:36:00.092Z,12.70
2017-10-25T19:38:28.432Z,12.70
2017-10-25T19:40:57.693Z,12.70
2017-10-25T19:43:26.152Z,12.70
2017-10-25T19:45:55.233Z,12.60
2017-10-25T19:48:22.920Z,12.60
2017-10-25T19:50:51.257Z,12.50
2017-10-25T19:53:19.265Z,12.50
2017-10-25T19:55:46.832Z,12.50
2017-10-25T19:58:15.164Z,12.50
2017-10-25T20:00:42.756Z,12.50
2017-10-25T20:03:11.097Z,12.60
2017-10-25T20:05:38.696Z,12.60
2017-10-25T20:08:06.260Z,12.50
2017-10-25T20:10:33.924Z,12.50
2017-10-25T20:13:01.495Z,12.40
2017-10-25T20:15:30.149Z,12.30
2017-10-25T20:17:59.772Z,12.30
2017-10-25T20:20:27.344Z,12.30
2017-10-25T20:22:55.001Z,12.20
2017-10-25T20:25:22.577Z,12.20
2017-10-25T20:27:50.948Z,12.10
2017-10-25T20:30:19.284Z,12.10
2017-10-25T20:32:46.885Z,12.10
2017-10-25T20:35:15.239Z,11.90
2017-10-25T20:37:42.972Z,11.90
2017-10-25T20:40:10.577Z,11.90
2017-10-25T20:42:38.196Z,11.80
2017-10-25T20:45:06.627Z,11.70
2017-10-25T20:47:34.207Z,11.60
2017-10-25T20:50:02.565Z,11.60
2017-10-25T20:52:30.145Z,11.60
2017-10-25T20:54:58.809Z,11.60
2017-10-25T20:57:26.377Z,11.60
2017-10-25T20:59:53.977Z,11.60
2017-10-25T21:02:21.593Z,11.60
2017-10-25T21:04:49.968Z,11.60
2017-10-25T21:07:19.048Z,11.60
2017-10-25T21:09:46.617Z,11.60
2017-10-25T21:12:14.249Z,11.60
2017-10-25T21:14:41.820Z,11.60
2017-10-25T21:17:09.401Z,11.60
2017-10-25T21:19:37.280Z,11.60
2017-10-25T21:22:04.860Z,11.60
2017-10-25T21:24:33.190Z,11.70
2017-10-25T21:27:00.784Z,11.60
2017-10-25T21:29:28.356Z,11.60
2017-10-25T21:31:57.640Z,11.70
2017-10-25T21:34:25.212Z,11.70
2017-10-25T21:36:52.825Z,11.70
2017-10-25T21:39:20.440Z,11.60
2017-10-25T21:41:48.776Z,11.60
2017-10-25T21:44:16.680Z,11.60
2017-10-25T21:46:44.256Z,11.50
2017-10-25T21:49:12.712Z,11.40
2017-10-25T21:51:40.291Z,11.40
2017-10-25T21:54:08.661Z,11.40
2017-10-25T21:56:36.237Z,11.40
2017-10-25T21:59:04.605Z,11.30
2017-10-25T22:01:32.949Z,11.30
2017-10-25T22:04:00.549Z,11.30
2017-10-25T22:06:28.896Z,11.30
2017-10-25T22:08:59.016Z,11.30
2017-10-25T22:11:26.591Z,11.30
2017-10-25T22:13:54.160Z,11.40
2017-10-25T22:16:21.760Z,11.40
2017-10-25T22:18:49.380Z,11.30
2017-10-25T22:21:18.495Z,11.30
2017-10-25T22:23:46.836Z,11.30
2017-10-25T22:26:14.433Z,11.30
2017-10-25T22:28:42.775Z,11.30
2017-10-25T22:31:10.561Z,11.20
2017-10-25T22:33:38.136Z,11.30
2017-10-25T22:36:06.479Z,11.30
2017-10-25T22:38:34.071Z,11.30
2017-10-25T22:41:02.412Z,11.30
2017-10-25T22:43:30.417Z,11.30
2017-10-25T22:45:59.717Z,11.30
2017-10-25T22:48:28.056Z,11.20
2017-10-25T22:50:55.651Z,11.20
2017-10-25T22:53:23.990Z,11.20
2017-10-25T22:55:51.693Z,11.20
2017-10-25T22:58:19.269Z,11.10
2017-10-25T23:00:47.633Z,11.10
2017-10-25T23:03:15.305Z,11.10
2017-10-25T23:05:43.700Z,11.00
2017-10-25T23:08:12.036Z,11.00
2017-10-25T23:10:40.501Z,10.90
2017-10-25T23:13:08.121Z,10.90
2017-10-25T23:15:36.483Z,10.90
2017-10-25T23:18:04.117Z,10.90
2017-10-25T23:20:31.700Z,10.90
2017-10-25T23:22:59.928Z,10.90
2017-10-25T23:25:27.521Z,10.90
2017-10-25T23:27:55.093Z,10.80
2017-10-25T23:30:23.451Z,10.70
2017-10-25T23:32:51.031Z,10.70
2017-10-25T23:35:18.628Z,10.60
2017-10-25T23:37:46.208Z,10.60
2017-10-25T23:40:13.921Z,10.60
2017-10-25T23:42:41.492Z,10.60
2017-10-25T23:45:09.067Z,10.50
2017-10-25T23:47:37.429Z,10.50
2017-10-25T23:50:05.003Z,10.50
2017-10-25T23:52:33.360Z,10.60
2017-10-25T23:55:01.032Z,10.50
2017-10-25T23:57:28.791Z,10.60
2017-10-25T23:59:58.171Z,10.50
